Time;durP1;ratioP1;P1;durP2;ratioP2;P2;SDS_P1;SDS_P2;PMS_P1;PMS_P2;Temp;Humidity;BMP_temperature;BMP_pressure;BME280_temperature;BME280_humidity;BME280_pressure;Samples;Min_cycle;Max_cycle;Signal;HPM_P1;HPM_P2
2023/09/06 00:00:28;;;;;;;6.07;3.03;;;;;;;16.64;100.00;101052.44;5034161;28;20029;-79
2023/09/06 00:02:57;;;;;;;6.15;3.00;;;;;;;16.60;100.00;101051.28;5031950;28;20049;-79
2023/09/06 00:05:24;;;;;;;4.97;3.17;;;;;;;16.56;100.00;101052.84;5032616;28;20084;-78
2023/09/06 00:07:50;;;;;;;5.20;3.08;;;;;;;16.52;100.00;101054.41;5031412;28;20033;-79
2023/09/06 00:10:17;;;;;;;4.95;3.15;;;;;;;16.48;100.00;101051.34;5031727;28;20064;-80
2023/09/06 00:12:45;;;;;;;6.47;3.80;;;;;;;16.46;100.00;101041.66;5031564;28;20038;-79
2023/09/06 00:15:11;;;;;;;5.47;3.20;;;;;;;16.46;100.00;101039.75;5039742;28;20056;-79
2023/09/06 00:17:38;;;;;;;5.53;3.20;;;;;;;16.45;100.00;101029.81;5036163;28;20040;-79
2023/09/06 00:20:20;;;;;;;5.88;3.17;;;;;;;16.43;100.00;101033.88;5030663;28;20367;-79
2023/09/06 00:23:01;;;;;;;6.20;3.17;;;;;;;16.37;100.00;101030.19;5030205;28;20392;-79
2023/09/06 00:25:31;;;;;;;5.63;3.05;;;;;;;16.33;100.00;101027.09;5031698;28;20477;-79
2023/09/06 00:27:58;;;;;;;6.13;3.60;;;;;;;16.31;100.00;101031.19;5033698;28;20048;-80
2023/09/06 00:30:24;;;;;;;6.28;3.40;;;;;;;16.28;100.00;101026.97;5051556;28;20043;-79
2023/09/06 00:32:53;;;;;;;5.72;3.35;;;;;;;16.24;100.00;101021.16;5033615;28;20120;-79
2023/09/06 00:35:21;;;;;;;5.15;3.35;;;;;;;16.24;100.00;101026.66;5033040;28;20405;-79
2023/09/06 00:37:48;;;;;;;5.22;3.15;;;;;;;16.19;100.00;101028.47;5033700;28;20124;-78
2023/09/06 00:40:17;;;;;;;4.55;3.17;;;;;;;16.17;100.00;101019.63;5031100;28;20040;-79
2023/09/06 00:42:51;;;;;;;5.50;3.22;;;;;;;16.14;100.00;101017.38;5030238;28;20040;-79
2023/09/06 00:45:21;;;;;;;6.20;3.10;;;;;;;16.08;100.00;101017.28;5031757;28;20103;-80
2023/09/06 00:47:51;;;;;;;5.60;3.10;;;;;;;16.06;100.00;101010.34;5034226;28;20478;-79
2023/09/06 00:50:18;;;;;;;6.45;3.60;;;;;;;16.05;100.00;101019.66;5034310;28;20030;-79
2023/09/06 00:52:45;;;;;;;6.35;3.60;;;;;;;16.01;100.00;101008.31;5017732;28;20120;-79
2023/09/06 00:55:13;;;;;;;5.88;3.55;;;;;;;15.96;100.00;101017.31;5033844;28;20037;-79
2023/09/06 00:57:41;;;;;;;8.80;4.07;;;;;;;15.90;100.00;101018.25;5043417;28;20101;-78
2023/09/06 01:00:14;;;;;;;5.88;3.67;;;;;;;15.89;100.00;101011.09;5040584;28;20508;-78
2023/09/06 01:02:41;;;;;;;7.35;3.97;;;;;;;15.91;100.00;101011.72;5044850;28;20029;-78
2023/09/06 01:05:07;;;;;;;8.93;4.22;;;;;;;15.93;100.00;100993.03;5034897;28;20073;-79
2023/09/06 01:07:37;;;;;;;6.07;3.58;;;;;;;15.92;100.00;100983.13;5033719;28;20079;-78
2023/09/06 01:10:04;;;;;;;6.95;3.67;;;;;;;15.92;100.00;100985.03;5041142;28;20057;-78
2023/09/06 01:12:30;;;;;;;6.38;3.60;;;;;;;15.92;100.00;100982.25;5036707;28;20108;-78
2023/09/06 01:14:56;;;;;;;6.20;3.55;;;;;;;15.90;100.00;100981.69;5033975;28;20025;-78
2023/09/06 01:17:26;;;;;;;5.32;3.90;;;;;;;15.98;100.00;100974.97;5036727;28;20443;-77
2023/09/06 01:19:59;;;;;;;7.40;4.22;;;;;;;16.07;100.00;100960.56;5037164;28;20040;-79
2023/09/06 01:22:40;;;;;;;6.68;4.35;;;;;;;16.14;100.00;100954.88;5034900;28;20046;-78
2023/09/06 01:25:08;;;;;;;5.70;3.60;;;;;;;16.16;100.00;100949.16;5025473;28;20160;-78
2023/09/06 01:27:35;;;;;;;5.10;3.63;;;;;;;16.15;100.00;100951.06;5039617;28;20052;-79
2023/09/06 01:30:01;;;;;;;5.90;4.05;;;;;;;16.00;100.00;100934.28;5047171;28;20067;-80
2023/09/06 01:32:27;;;;;;;6.63;4.03;;;;;;;16.09;100.00;100952.91;5033247;28;20049;-79
2023/09/06 01:34:54;;;;;;;5.60;4.00;;;;;;;16.16;100.00;100940.91;5034980;28;20041;-79
2023/09/06 01:37:21;;;;;;;5.82;3.97;;;;;;;16.20;100.00;100937.41;5033395;28;20041;-79
2023/09/06 01:39:47;;;;;;;6.05;3.30;;;;;;;16.16;100.00;100938.97;5034124;28;20063;-79
2023/09/06 01:42:13;;;;;;;5.63;3.60;;;;;;;16.04;100.00;100941.78;5034616;28;20056;-79
2023/09/06 01:44:39;;;;;;;4.90;3.75;;;;;;;15.95;100.00;100948.75;5032871;28;20122;-79
2023/09/06 01:47:06;;;;;;;7.10;4.70;;;;;;;15.93;100.00;100937.16;5040593;28;20485;-79
2023/09/06 01:49:32;;;;;;;7.68;4.85;;;;;;;15.99;100.00;100938.09;5045415;28;20434;-79
2023/09/06 01:52:00;;;;;;;7.13;4.60;;;;;;;15.96;100.00;100925.66;5034405;28;20038;-79
2023/09/06 01:54:27;;;;;;;;;;;;;;;15.91;100.00;100929.19;5037837;28;20055;-78
2023/09/06 01:56:53;;;;;;;7.05;4.45;;;;;;;15.85;100.00;100930.09;5035293;28;19982;-79
2023/09/06 01:59:19;;;;;;;7.05;4.38;;;;;;;15.85;100.00;100924.59;5035975;28;20045;-79
2023/09/06 02:01:46;;;;;;;6.90;4.20;;;;;;;15.86;100.00;100919.94;5022256;28;20109;-79
2023/09/06 02:04:12;;;;;;;6.25;4.35;;;;;;;15.83;100.00;100915.75;5035733;28;20489;-79
2023/09/06 02:06:38;;;;;;;7.45;4.30;;;;;;;15.80;100.00;100922.59;5040372;28;20033;-79
2023/09/06 02:09:04;;;;;;;5.97;4.40;;;;;;;15.80;100.00;100927.25;5033862;28;20125;-79
2023/09/06 02:11:33;;;;;;;5.47;3.95;;;;;;;15.78;100.00;100929.41;5033847;28;20029;-78
2023/09/06 02:13:59;;;;;;;6.32;4.20;;;;;;;15.76;100.00;100932.41;5034047;28;20125;-79
2023/09/06 02:16:25;;;;;;;6.97;4.35;;;;;;;15.73;100.00;100941.16;5042931;28;20041;-78
2023/09/06 02:18:51;;;;;;;6.22;3.90;;;;;;;15.64;100.00;100940.69;5037431;28;20038;-78
2023/09/06 02:21:17;;;;;;;5.25;4.03;;;;;;;15.57;100.00;100953.75;5035737;28;20500;-78
2023/09/06 02:23:43;;;;;;;5.65;4.03;;;;;;;15.56;100.00;100946.59;5033617;28;20045;-79
2023/09/06 02:26:11;;;;;;;;;;;;;;;15.58;100.00;100940.84;5039786;28;20025;-79
2023/09/06 02:28:37;;;;;;;7.00;4.35;;;;;;;15.56;100.00;100938.34;5033956;28;20007;-78
2023/09/06 02:31:04;;;;;;;9.20;5.13;;;;;;;15.54;100.00;100932.25;5036952;28;20101;-78
2023/09/06 02:33:30;;;;;;;7.57;4.72;;;;;;;15.49;100.00;100943.97;5033638;28;20026;-78
2023/09/06 02:35:56;;;;;;;7.85;4.65;;;;;;;15.41;100.00;100944.34;5038243;28;20041;-78
2023/09/06 02:38:22;;;;;;;7.07;4.40;;;;;;;15.38;100.00;100955.81;5033234;28;20041;-79
2023/09/06 02:40:50;;;;;;;7.35;4.18;;;;;;;15.32;100.00;100959.56;5038115;28;20037;-79
2023/09/06 02:43:17;;;;;;;7.88;4.20;;;;;;;15.27;100.00;100959.44;5033221;28;20030;-78
2023/09/06 02:45:49;;;;;;;6.88;4.78;;;;;;;15.19;100.00;100964.22;5032869;28;20037;-78
2023/09/06 02:48:16;;;;;;;6.57;4.10;;;;;;;15.08;100.00;100974.13;5047391;28;20120;-78
2023/09/06 02:50:44;;;;;;;5.15;4.00;;;;;;;14.99;100.00;100972.00;5038405;28;20033;-78
2023/09/06 02:53:31;;;;;;;6.97;4.63;;;;;;;14.94;100.00;100986.44;5044984;28;20117;-79
2023/09/06 02:55:59;;;;;;;7.43;4.72;;;;;;;14.91;100.00;100975.94;5038422;28;20366;-78
2023/09/06 02:58:25;;;;;;;8.40;6.00;;;;;;;14.93;100.00;100980.09;5033299;28;20543;-78
2023/09/06 03:01:05;;;;;;;7.18;5.57;;;;;;;14.98;100.00;100964.81;5042123;28;20029;-79
2023/09/06 03:03:32;;;;;;;7.68;5.63;;;;;;;15.09;100.00;100950.25;5020100;28;20032;-78
2023/09/06 03:06:04;;;;;;;7.70;5.38;;;;;;;15.20;100.00;100935.66;5032852;28;20504;-79
2023/09/06 03:08:30;;;;;;;9.52;5.03;;;;;;;15.27;100.00;100924.53;5031405;28;20050;-78
2023/09/06 03:10:56;;;;;;;6.30;5.07;;;;;;;15.33;100.00;100922.75;5036464;28;20039;-78
2023/09/06 03:13:22;;;;;;;7.68;5.30;;;;;;;15.34;100.00;100925.22;5032967;28;20076;-78
2023/09/06 03:15:51;;;;;;;7.57;4.85;;;;;;;15.28;100.00;100942.69;5035179;28;20122;-79
2023/09/06 03:18:22;;;;;;;6.53;4.82;;;;;;;15.27;100.00;100954.78;5032934;28;20382;-79
2023/09/06 03:20:48;;;;;;;5.70;4.45;;;;;;;15.23;100.00;100946.16;5035958;28;20037;-79
2023/09/06 03:23:23;;;;;;;6.35;4.72;;;;;;;15.22;100.00;100941.75;5032534;28;20026;-79
2023/09/06 03:25:55;;;;;;;10.20;5.03;;;;;;;15.21;100.00;100956.56;5031696;28;20033;-78
2023/09/06 03:28:25;;;;;;;;;;;;;;;15.20;100.00;100948.56;5039224;28;20108;-78
2023/09/06 03:30:52;;;;;;;8.05;4.40;;;;;;;15.19;100.00;100952.41;5037063;28;19974;-79
2023/09/06 03:33:18;;;;;;;6.55;4.72;;;;;;;15.18;100.00;100940.56;5033642;28;20138;-79
2023/09/06 03:35:48;;;;;;;7.68;4.82;;;;;;;15.23;100.00;100939.84;5038483;28;20053;-80
2023/09/06 03:38:15;;;;;;;8.40;5.10;;;;;;;15.23;100.00;100951.66;5036929;28;20063;-79
2023/09/06 03:40:42;;;;;;;6.47;4.57;;;;;;;15.21;100.00;100951.06;5036796;28;20095;-79
2023/09/06 03:43:14;;;;;;;8.15;5.03;;;;;;;15.19;100.00;100955.97;5033802;28;20033;-79
2023/09/06 03:45:51;;;;;;;6.85;4.80;;;;;;;15.17;100.00;100949.88;5036420;28;20041;-79
2023/09/06 03:48:22;;;;;;;8.48;5.05;;;;;;;15.12;100.00;100959.91;5038468;28;20034;-79
2023/09/06 03:50:56;;;;;;;9.05;4.55;;;;;;;15.05;100.00;100955.38;5024781;28;20037;-79
2023/09/06 03:53:26;;;;;;;7.55;4.25;;;;;;;14.93;100.00;100966.38;5044262;28;20052;-78
2023/09/06 03:55:56;;;;;;;5.82;3.83;;;;;;;14.82;100.00;100980.94;5042098;28;20033;-79
2023/09/06 03:58:24;;;;;;;5.43;3.85;;;;;;;14.74;100.00;100982.13;5043051;28;20059;-79
2023/09/06 04:00:52;;;;;;;5.95;4.07;;;;;;;14.70;100.00;100980.03;5034693;28;20033;-79
2023/09/06 04:03:26;;;;;;;7.40;4.03;;;;;;;14.68;100.00;100975.63;5030407;28;20117;-79
2023/09/06 04:05:52;;;;;;;6.53;4.05;;;;;;;14.67;100.00;100981.38;5036787;28;20039;-79
2023/09/06 04:08:19;;;;;;;5.28;3.75;;;;;;;14.53;100.00;100987.06;5035285;28;20516;-79
2023/09/06 04:10:49;;;;;;;6.85;3.95;;;;;;;14.38;100.00;100997.66;5038265;28;20041;-79
2023/09/06 04:13:17;;;;;;;8.00;4.28;;;;;;;14.23;100.00;101001.63;5040553;28;20037;-79
2023/09/06 04:15:43;;;;;;;5.90;4.20;;;;;;;14.09;100.00;101011.13;5033675;28;20128;-79
2023/09/06 04:18:11;;;;;;;7.18;4.47;;;;;;;13.92;100.00;101020.00;5032560;28;20030;-79
2023/09/06 04:20:39;;;;;;;;;;;;;;;13.82;100.00;101016.97;5041248;28;20128;-79
2023/09/06 04:23:08;;;;;;;6.22;4.78;;;;;;;13.80;100.00;101021.84;5039215;28;19948;-79
2023/09/06 04:25:41;;;;;;;7.95;5.22;;;;;;;13.80;100.00;101016.38;5043083;28;20053;-80
2023/09/06 04:28:10;;;;;;;6.38;4.63;;;;;;;13.79;100.00;101014.66;5039281;28;20489;-79
2023/09/06 04:30:38;;;;;;;7.75;5.55;;;;;;;13.81;100.00;101009.81;5030373;28;20133;-79
2023/09/06 04:33:05;;;;;;;7.72;5.78;;;;;;;13.84;100.00;101001.13;5032044;28;20083;-80
2023/09/06 04:35:34;;;;;;;;;;;;;;;13.88;100.00;101002.31;5030918;28;20087;-79
2023/09/06 04:38:04;;;;;;;9.02;6.78;;;;;;;13.94;100.00;100997.84;5046674;28;20004;-80
2023/09/06 04:40:30;;;;;;;10.15;6.72;;;;;;;13.99;100.00;100991.63;5031843;28;20029;-79
2023/09/06 04:42:57;;;;;;;12.95;6.78;;;;;;;14.06;100.00;100986.91;5036587;28;20052;-84
2023/09/06 04:45:23;;;;;;;11.23;6.95;;;;;;;14.06;100.00;100990.47;5030429;28;20128;-79
2023/09/06 04:47:49;;;;;;;12.73;7.35;;;;;;;14.08;100.00;100990.25;5036719;28;20120;-81
2023/09/06 04:50:16;;;;;;;11.63;7.50;;;;;;;14.17;100.00;100983.38;5019067;28;20507;-77
2023/09/06 04:52:47;;;;;;;9.25;7.78;;;;;;;14.19;100.00;100980.38;5044141;28;20045;-82
2023/09/06 04:55:14;;;;;;;10.45;7.70;;;;;;;14.22;100.00;100994.47;5033105;28;20540;-78
2023/09/06 04:57:42;;;;;;;9.93;7.50;;;;;;;14.24;100.00;100984.09;5027311;28;20030;-78
2023/09/06 05:00:11;;;;;;;10.68;7.38;;;;;;;14.29;100.00;100982.56;5041640;28;20079;-78
2023/09/06 05:02:38;;;;;;;15.43;8.70;;;;;;;14.35;100.00;100985.22;5038755;28;20045;-78
2023/09/06 05:05:04;;;;;;;30.27;13.45;;;;;;;14.49;100.00;100974.06;5039775;28;20760;-76
2023/09/06 05:07:31;;;;;;;50.85;22.25;;;;;;;14.65;100.00;100961.53;5044049;28;20447;-76
2023/09/06 05:09:59;;;;;;;31.27;14.63;;;;;;;14.75;100.00;100961.00;5044394;28;20124;-76
2023/09/06 05:12:26;;;;;;;31.38;14.50;;;;;;;14.76;100.00;100960.75;5040243;28;20047;-77
2023/09/06 05:14:54;;;;;;;28.42;14.30;;;;;;;14.83;100.00;100955.16;5044033;28;20373;-77
2023/09/06 05:17:20;;;;;;;23.33;13.05;;;;;;;14.91;100.00;100956.72;5032785;28;20587;-78
2023/09/06 05:19:50;;;;;;;14.70;9.68;;;;;;;15.01;100.00;100959.69;5033038;28;20400;-77
2023/09/06 05:22:17;;;;;;;20.13;10.38;;;;;;;15.08;100.00;100954.91;5043442;28;20040;-77
2023/09/06 05:24:43;;;;;;;19.67;10.40;;;;;;;15.16;100.00;100955.63;5030084;28;20061;-77
2023/09/06 05:27:10;;;;;;;16.05;10.10;;;;;;;15.19;100.00;100955.97;5019204;28;20053;-76
2023/09/06 05:29:37;;;;;;;14.02;10.93;;;;;;;15.28;100.00;100952.88;5032835;28;20053;-77
2023/09/06 05:32:03;;;;;;;16.55;11.20;;;;;;;15.39;100.00;100941.84;5037160;28;20425;-77
2023/09/06 05:34:30;;;;;;;15.60;11.63;;;;;;;15.55;100.00;100933.91;5047447;28;20496;-76
2023/09/06 05:36:56;;;;;;;14.15;11.10;;;;;;;15.68;100.00;100930.91;5033412;28;20041;-76
2023/09/06 05:39:23;;;;;;;16.20;11.98;;;;;;;15.77;100.00;100928.56;5039255;28;20049;-75
2023/09/06 05:41:50;;;;;;;14.10;11.73;;;;;;;15.86;100.00;100933.69;5032644;28;20075;-74
2023/09/06 05:44:16;;;;;;;16.05;11.30;;;;;;;15.91;100.00;100929.19;5032443;28;20649;-74
2023/09/06 05:46:45;;;;;;;18.42;11.25;;;;;;;15.98;100.00;100940.00;5040198;28;20409;-74
2023/09/06 05:49:13;;;;;;;15.73;11.20;;;;;;;16.05;100.00;100942.63;5048088;28;20022;-74
2023/09/06 05:51:43;;;;;;;16.13;11.65;;;;;;;16.15;100.00;100944.72;5034200;28;20038;-74
2023/09/06 05:54:10;;;;;;;17.27;11.93;;;;;;;16.23;100.00;100942.41;5037983;28;20037;-74
2023/09/06 05:56:38;;;;;;;15.02;11.85;;;;;;;16.32;100.00;100942.84;5033893;28;20048;-74
2023/09/06 05:59:05;;;;;;;13.90;10.90;;;;;;;16.43;100.00;100938.31;5038121;28;20049;-74
2023/09/06 06:01:31;;;;;;;16.30;11.48;;;;;;;16.56;100.00;100939.91;5033699;28;20489;-74
2023/09/06 06:03:57;;;;;;;18.02;12.68;;;;;;;16.68;100.00;100937.94;5037575;28;20033;-73
2023/09/06 06:06:23;;;;;;;18.65;12.50;;;;;;;16.75;100.00;100936.91;5039208;28;20025;-74
2023/09/06 06:08:50;;;;;;;18.50;12.52;;;;;;;16.83;100.00;100944.75;5046637;28;20033;-74
2023/09/06 06:11:16;;;;;;;18.40;13.07;;;;;;;16.96;100.00;100938.06;5034906;28;20029;-74
2023/09/06 06:13:42;;;;;;;16.23;11.88;;;;;;;17.04;100.00;100953.38;5034373;28;20135;-74
2023/09/06 06:16:08;;;;;;;17.73;12.95;;;;;;;17.14;100.00;100953.53;5034332;28;20405;-76
2023/09/06 06:18:35;;;;;;;18.20;12.40;;;;;;;17.27;100.00;100960.63;5035038;28;20515;-75
2023/09/06 06:21:02;;;;;;;17.08;11.57;;;;;;;17.44;100.00;100971.59;5043686;28;20400;-76
2023/09/06 06:23:29;;;;;;;18.35;12.32;;;;;;;17.60;100.00;100975.38;5035370;28;20044;-76
2023/09/06 06:25:55;;;;;;;15.73;11.10;;;;;;;17.86;100.00;100985.88;5041415;28;20041;-76
2023/09/06 06:28:22;;;;;;;14.40;11.13;;;;;;;17.89;100.00;101000.00;5044077;28;20042;-76
2023/09/06 06:30:48;;;;;;;13.68;10.68;;;;;;;17.99;100.00;101013.09;5038271;28;20042;-76
2023/09/06 06:33:14;;;;;;;14.88;10.35;;;;;;;18.14;100.00;101030.97;5037268;28;20029;-76
2023/09/06 06:35:40;;;;;;;15.52;10.05;;;;;;;18.31;100.00;101069.56;5037804;28;20405;-76
2023/09/06 06:38:06;;;;;;;13.80;9.75;;;;;;;18.49;100.00;101102.34;5033933;28;20037;-76
2023/09/06 06:40:36;;;;;;;11.82;8.02;;;;;;;18.58;100.00;101170.97;5039403;28;20033;-76
2023/09/06 06:43:02;;;;;;;9.73;7.25;;;;;;;18.68;100.00;101207.00;5034900;28;20037;-77
2023/09/06 06:45:29;;;;;;;11.40;6.63;;;;;;;18.78;100.00;101234.72;5039947;28;20033;-76
2023/09/06 06:47:55;;;;;;;11.18;6.63;;;;;;;18.96;100.00;101249.31;5036522;28;20454;-76
2023/09/06 06:50:21;;;;;;;7.47;6.30;;;;;;;19.13;100.00;101254.78;5032837;28;20040;-75
2023/09/06 06:52:47;;;;;;;8.30;5.72;;;;;;;19.28;100.00;101267.94;5048476;28;20473;-76
2023/09/06 06:55:15;;;;;;;8.52;5.75;;;;;;;19.51;100.00;101277.03;5035005;28;20038;-77
2023/09/06 06:57:42;;;;;;;;;;;;;;;19.70;100.00;101288.53;5034508;28;20486;-76
2023/09/06 07:00:11;;;;;;;7.00;4.80;;;;;;;19.81;100.00;101301.41;5049233;28;19967;-76
2023/09/06 07:02:38;;;;;;;5.93;4.18;;;;;;;19.91;100.00;101328.38;5033934;28;20420;-80
2023/09/06 07:05:04;;;;;;;5.30;3.90;;;;;;;20.03;100.00;101341.19;5033922;28;20481;-80
2023/09/06 07:07:30;;;;;;;9.32;3.85;;;;;;;20.18;100.00;101346.00;5033144;28;20321;-80
2023/09/06 07:09:56;;;;;;;7.60;3.83;;;;;;;20.32;100.00;101360.25;5038517;28;20045;-80
2023/09/06 07:12:23;;;;;;;6.55;3.53;;;;;;;20.58;100.00;101354.88;5037674;28;20053;-77
2023/09/06 07:14:51;;;;;;;7.13;3.47;;;;;;;20.69;100.00;101367.72;5021529;28;20044;-77
2023/09/06 07:17:17;;;;;;;5.07;3.13;;;;;;;20.88;100.00;101370.06;5033323;28;20057;-76
2023/09/06 07:19:43;;;;;;;5.93;3.10;;;;;;;20.97;100.00;101374.81;5042268;28;20083;-76
2023/09/06 07:22:10;;;;;;;4.53;2.97;;;;;;;21.06;100.00;101380.69;5033437;28;20040;-76
2023/09/06 07:24:36;;;;;;;5.32;3.08;;;;;;;21.21;100.00;101379.09;5033252;28;20428;-76
2023/09/06 07:27:02;;;;;;;4.93;2.97;;;;;;;21.50;100.00;101387.78;5036097;28;20037;-77
2023/09/06 07:29:28;;;;;;;5.25;3.00;;;;;;;21.68;100.00;101399.53;5033416;28;20083;-77
2023/09/06 07:31:54;;;;;;;5.45;2.80;;;;;;;21.81;100.00;101404.56;5032793;28;20583;-76
2023/09/06 07:34:20;;;;;;;4.35;2.70;;;;;;;21.97;100.00;101413.75;5033087;28;20432;-75
2023/09/06 07:36:46;;;;;;;4.88;2.40;;;;;;;22.11;100.00;101410.44;5033319;28;20041;-76
2023/09/06 07:39:12;;;;;;;6.40;2.42;;;;;;;22.22;100.00;101414.06;5033448;28;20513;-76
2023/09/06 07:41:38;;;;;;;4.82;2.58;;;;;;;22.38;100.00;101406.56;5032818;28;20041;-76
2023/09/06 07:44:04;;;;;;;4.43;2.45;;;;;;;22.48;100.00;101420.47;5035639;28;20485;-77
2023/09/06 07:46:31;;;;;;;4.50;2.50;;;;;;;22.70;100.00;101422.97;5037000;28;20037;-77
2023/09/06 07:48:57;;;;;;;5.93;2.50;;;;;;;22.84;100.00;101420.44;5032898;28;20118;-77
2023/09/06 07:51:23;;;;;;;3.80;2.45;;;;;;;22.99;100.00;101415.94;5032968;28;20052;-78
2023/09/06 07:53:49;;;;;;;6.22;2.40;;;;;;;23.20;100.00;101427.00;5033120;28;20034;-78
2023/09/06 07:56:15;;;;;;;5.95;2.85;;;;;;;23.43;100.00;101431.09;5032571;28;20473;-78
2023/09/06 07:58:42;;;;;;;3.65;2.20;;;;;;;23.59;100.00;101428.25;5032933;28;20030;-77
2023/09/06 08:01:08;;;;;;;4.22;2.40;;;;;;;23.69;100.00;101426.25;5038940;28;20055;-78
2023/09/06 08:03:34;;;;;;;4.32;2.17;;;;;;;23.83;100.00;101431.19;5032865;28;20033;-77
2023/09/06 08:06:00;;;;;;;5.82;2.30;;;;;;;23.95;100.00;101437.25;5015267;28;20107;-77
2023/09/06 08:08:26;;;;;;;6.72;2.17;;;;;;;24.13;100.00;101440.47;5032089;28;20505;-77
2023/09/06 08:10:53;;;;;;;5.60;2.17;;;;;;;24.32;100.00;101437.00;5032372;28;20037;-77
2023/09/06 08:13:19;;;;;;;5.68;2.30;;;;;;;24.45;100.00;101432.72;5032535;28;20096;-77
2023/09/06 08:15:46;;;;;;;4.65;2.08;;;;;;;24.58;100.00;101436.78;5031711;28;20087;-77
2023/09/06 08:18:12;;;;;;;5.93;2.25;;;;;;;24.77;100.00;101434.09;5032072;28;20072;-77
2023/09/06 08:20:38;;;;;;;3.20;2.00;;;;;;;24.84;100.00;101441.00;5037445;28;20037;-77
2023/09/06 08:23:04;;;;;;;6.40;2.15;;;;;;;24.88;100.00;101443.22;5032534;28;20048;-77
2023/09/06 08:25:33;;;;;;;5.40;2.22;;;;;;;25.06;100.00;101444.41;5032130;28;20133;-77
2023/09/06 08:27:59;;;;;;;4.45;2.30;;;;;;;25.07;100.00;101444.13;5032699;28;20044;-76
2023/09/06 08:30:25;;;;;;;8.25;2.10;;;;;;;25.16;100.00;101447.09;5046011;28;20039;-78
2023/09/06 08:32:52;;;;;;;4.15;1.83;;;;;;;25.39;100.00;101450.19;5032388;28;20635;-78
2023/09/06 08:35:18;;;;;;;5.25;1.70;;;;;;;25.58;100.00;101452.19;5032056;28;20536;-77
2023/09/06 08:37:46;;;;;;;5.72;2.00;;;;;;;25.79;100.00;101452.75;5031993;28;20041;-77
2023/09/06 08:40:12;;;;;;;4.53;1.98;;;;;;;25.84;100.00;101445.09;5032127;28;20045;-78
2023/09/06 08:42:39;;;;;;;3.88;1.90;;;;;;;25.98;100.00;101441.56;5032144;28;20105;-78
2023/09/06 08:45:09;;;;;;;3.50;1.80;;;;;;;26.07;100.00;101450.94;5032250;28;20515;-77
2023/09/06 08:47:39;;;;;;;5.60;1.90;;;;;;;26.19;100.00;101449.69;5032304;28;20486;-77
2023/09/06 08:50:09;;;;;;;3.78;2.05;;;;;;;26.37;100.00;101448.78;5031158;28;20140;-77
2023/09/06 08:52:38;;;;;;;4.80;1.98;;;;;;;26.35;100.00;101444.66;5032009;28;20125;-77
2023/09/06 08:55:05;;;;;;;4.88;2.03;;;;;;;26.54;100.00;101451.06;5030751;28;20041;-78
2023/09/06 08:57:32;;;;;;;5.10;2.30;;;;;;;26.75;100.00;101450.66;5035052;28;20048;-78
2023/09/06 08:59:59;;;;;;;3.35;1.80;;;;;;;26.83;100.00;101447.19;5036348;28;20041;-78
2023/09/06 09:25:14;;;;;;;4.43;1.80;;;;;;;27.74;95.06;101445.94;4568817;27;1405164;-83
2023/09/06 09:27:44;;;;;;;4.15;1.90;;;;;;;27.93;94.89;101445.78;5073104;28;20399;-84
2023/09/06 09:30:14;;;;;;;4.25;1.90;;;;;;;27.88;95.67;101445.91;5080604;28;20340;-84
2023/09/06 09:32:40;;;;;;;4.47;1.70;;;;;;;28.11;90.01;101446.75;5080816;28;20047;-84
2023/09/06 09:35:11;;;;;;;4.38;1.70;;;;;;;28.20;82.58;101438.44;5082371;28;20040;-83
2023/09/06 09:37:42;;;;;;;2.55;1.35;;;;;;;28.48;88.11;101450.38;5083377;28;20391;-84
2023/09/06 09:40:20;;;;;;;6.13;1.83;;;;;;;28.94;94.62;101441.91;5085411;28;20032;-84
2023/09/06 09:42:53;;;;;;;4.38;1.92;;;;;;;29.23;77.62;101443.31;5088467;28;20047;-83
2023/09/06 09:45:19;;;;;;;5.05;1.63;;;;;;;29.39;67.98;101446.50;5085919;28;20051;-84
2023/09/06 09:47:46;;;;;;;5.40;1.67;;;;;;;29.67;67.00;101443.44;5085562;28;20056;-82
2023/09/06 09:50:13;;;;;;;4.68;1.77;;;;;;;29.70;63.06;101452.03;5085021;28;20032;-84
2023/09/06 09:52:42;;;;;;;4.25;1.80;;;;;;;29.79;67.06;101452.06;5087226;28;20047;-83
2023/09/06 09:55:10;;;;;;;4.05;1.65;;;;;;;29.90;80.12;101461.00;5087320;28;20036;-85
2023/09/06 09:57:38;;;;;;;2.60;1.55;;;;;;;29.98;72.10;101457.38;5085807;28;20044;-83
2023/09/06 10:00:11;;;;;;;3.28;1.63;;;;;;;30.11;57.22;101444.34;5084585;28;20033;-82
2023/09/06 10:02:42;;;;;;;2.47;1.50;;;;;;;30.49;73.10;101459.66;5084693;28;20043;-83
2023/09/06 10:05:12;;;;;;;4.07;1.60;;;;;;;31.07;64.88;101458.53;5085841;28;20037;-82
2023/09/06 10:07:41;;;;;;;5.43;1.85;;;;;;;32.08;63.20;101453.25;5085615;28;20041;-83
2023/09/06 10:10:10;;;;;;;2.63;1.55;;;;;;;32.99;59.37;101454.53;5086749;28;20487;-83
2023/09/06 10:12:42;;;;;;;3.33;1.60;;;;;;;33.53;45.48;101433.66;5086435;28;20101;-82
2023/09/06 10:15:13;;;;;;;4.35;1.80;;;;;;;34.73;46.22;101447.59;5084366;28;20490;-84
2023/09/06 10:17:40;;;;;;;5.40;1.65;;;;;;;35.98;39.90;101434.75;5086929;28;20120;-82
2023/09/06 10:20:14;;;;;;;3.03;1.60;;;;;;;36.87;38.72;101441.75;5080882;28;20173;-82
2023/09/06 10:34:45;;;;;;;5.00;2.00;;;;;;;37.48;34.54;101427.66;4127637;27;1191512;-79
2023/09/06 10:37:11;;;;;;;3.33;1.52;;;;;;;37.95;33.61;101427.47;5127532;28;20043;-79
2023/09/06 10:39:53;;;;;;;4.38;1.85;;;;;;;37.83;35.88;101442.78;5092954;28;20043;-78
2023/09/06 10:42:20;;;;;;;5.88;1.75;;;;;;;38.46;34.67;101434.63;5124513;28;20044;-80
2023/09/06 10:45:10;;;;;;;4.82;2.30;;;;;;;37.97;32.91;101431.63;5127328;28;20049;-80
2023/09/06 10:47:37;;;;;;;5.75;1.90;;;;;;;37.45;33.59;101427.63;5123572;28;20070;-81
2023/09/06 10:50:15;;;;;;;6.47;2.00;;;;;;;38.28;31.57;101420.97;5128185;28;20086;-78
2023/09/06 10:52:49;;;;;;;6.00;1.77;;;;;;;38.64;33.63;101433.97;5127581;28;20279;-80
2023/09/06 10:55:20;;;;;;;6.50;2.10;;;;;;;38.34;33.61;101429.16;5127611;28;20110;-82
2023/09/06 10:58:08;;;;;;;6.38;2.00;;;;;;;38.71;31.13;101419.75;5127642;28;20035;-78
2023/09/06 11:00:34;;;;;;;6.33;1.90;;;;;;;39.25;31.14;101427.94;5120291;28;20092;-77
2023/09/06 11:03:07;;;;;;;3.22;1.80;;;;;;;39.28;32.18;101435.72;5122923;28;20039;-78
2023/09/06 11:05:35;;;;;;;6.45;2.28;;;;;;;39.54;29.31;101416.72;5100518;28;20489;-79
2023/09/06 11:08:04;;;;;;;5.43;2.15;;;;;;;39.17;31.11;101437.66;5126288;28;20054;-79
2023/09/06 11:10:31;;;;;;;5.53;2.00;;;;;;;40.06;29.46;101433.69;5121766;28;20028;-78
2023/09/06 11:13:07;;;;;;;5.32;2.25;;;;;;;40.15;30.07;101433.28;5125320;28;20043;-77
2023/09/06 11:15:36;;;;;;;3.67;1.90;;;;;;;40.25;29.53;101435.34;5122986;28;20035;-79
2023/09/06 11:18:03;;;;;;;7.88;2.20;;;;;;;39.69;28.64;101421.28;5127106;28;20509;-80
2023/09/06 11:20:31;;;;;;;6.07;2.10;;;;;;;39.95;29.94;101436.50;5107885;28;20042;-81
2023/09/06 11:22:59;;;;;;;4.32;1.85;;;;;;;38.85;28.89;101401.97;5127950;28;20039;-80
2023/09/06 11:25:27;;;;;;;3.78;1.65;;;;;;;38.41;31.36;101435.75;5127278;28;20040;-80
2023/09/06 11:27:56;;;;;;;3.30;1.50;;;;;;;38.71;31.93;101442.56;5108942;28;20035;-80
2023/09/06 11:30:23;;;;;;;4.05;1.80;;;;;;;39.69;29.87;101432.69;5122271;28;20132;-79
2023/09/06 11:32:55;;;;;;;6.55;1.83;;;;;;;39.24;31.22;101446.25;5126489;28;20478;-79
2023/09/06 11:35:28;;;;;;;6.70;1.80;;;;;;;39.36;28.26;101410.88;5115104;28;20157;-78
2023/09/06 11:37:58;;;;;;;5.65;1.80;;;;;;;39.64;28.08;101415.97;5113547;28;20039;-79
2023/09/06 11:40:27;;;;;;;3.45;2.03;;;;;;;39.94;28.54;101429.16;5112187;28;20054;-79
2023/09/06 11:42:58;;;;;;;6.75;1.73;;;;;;;40.53;28.67;101438.69;5108210;28;20036;-79
2023/09/06 11:45:26;;;;;;;4.97;2.08;;;;;;;40.98;27.92;101432.59;5113229;28;20036;-77
2023/09/06 11:47:53;;;;;;;3.85;1.85;;;;;;;41.40;28.57;101436.66;5112293;28;20039;-77
2023/09/06 11:50:23;;;;;;;6.00;1.75;;;;;;;42.48;25.55;101423.06;5113039;28;20020;-78
2023/09/06 11:52:53;;;;;;;3.50;1.92;;;;;;;42.43;26.06;101423.47;5112998;28;20040;-79
2023/09/06 11:55:21;;;;;;;2.70;1.63;;;;;;;42.02;27.00;101435.63;5113201;28;20067;-79